Pagrindinis puslapis
METAR-TAF:

METAR-TAF

Oro uostai :

Kazvinas, Iranas

platuma: 36-15N, ilguma: 050-00E, Aukštis: 1278 m

Dabartinis oras

Ataskaita buvo paskelbta 32 minutes, ne 08:00 UTC
Vėjas 4 kt iš Pietryčių
Temperatūra 27°C
Drėgmė 34%
Slėgis 1019 hPa
Matomumas: 8000 m

METAR: OIIK 210800Z 14004KT 8000 NSC 27/10 Q1019

Laikas: 12:02 (08:32 UTC)


TAF: trūkstamas

Orai ataskaitas ir orų prognozės (METAR, TAF).

turimą stotys yra geltonos ir raudonos taškus žemėlapyje.

Perkelti pele per norėdami pamatyti stoties vardą.

Tada spustelėkite, norėdami matyti oro stebėjimo ir prognozės.

Norėdami pakeisti žemėlapį: spustelėkite ant žalios mygtukų su juodo kryžiaus žemyn,; žalią mygtuką su brūkšneliu, jei norite nutolinti; arba žalių rodyklių gretimoms žemėlapius.


METAR-TAF: